sensor_id;sensor_type;location;lat;lon;timestamp;P1;durP1;ratioP1;P2;durP2;ratioP2
40611;SDS011;26317;44.894;20.286;2023-02-26T00:01:11;7.68;;;6.00;;
40611;SDS011;26317;44.894;20.286;2023-02-26T00:03:47;6.18;;;5.57;;
40611;SDS011;26317;44.894;20.286;2023-02-26T00:06:33;7.43;;;5.95;;
40611;SDS011;26317;44.894;20.286;2023-02-26T00:09:29;6.30;;;5.60;;
40611;SDS011;26317;44.894;20.286;2023-02-26T00:12:05;5.47;;;4.88;;
40611;SDS011;26317;44.894;20.286;2023-02-26T00:14:47;5.72;;;4.75;;
40611;SDS011;26317;44.894;20.286;2023-02-26T00:17:44;5.05;;;4.55;;
40611;SDS011;26317;44.894;20.286;2023-02-26T00:20:37;5.95;;;5.28;;
40611;SDS011;26317;44.894;20.286;2023-02-26T00:23:28;9.50;;;8.35;;
40611;SDS011;26317;44.894;20.286;2023-02-26T00:26:07;9.63;;;6.15;;
40611;SDS011;26317;44.894;20.286;2023-02-26T00:28:50;8.00;;;6.47;;
40611;SDS011;26317;44.894;20.286;2023-02-26T00:31:40;7.32;;;6.28;;
40611;SDS011;26317;44.894;20.286;2023-02-26T00:34:16;7.25;;;6.55;;
40611;SDS011;26317;44.894;20.286;2023-02-26T00:37:02;7.10;;;6.32;;
40611;SDS011;26317;44.894;20.286;2023-02-26T00:39:58;8.95;;;7.78;;
40611;SDS011;26317;44.894;20.286;2023-02-26T00:43:06;9.13;;;8.10;;
40611;SDS011;26317;44.894;20.286;2023-02-26T00:45:58;10.20;;;8.98;;
40611;SDS011;26317;44.894;20.286;2023-02-26T00:48:50;7.95;;;7.15;;
40611;SDS011;26317;44.894;20.286;2023-02-26T00:51:41;8.23;;;7.43;;
40611;SDS011;26317;44.894;20.286;2023-02-26T00:54:26;9.02;;;8.13;;
40611;SDS011;26317;44.894;20.286;2023-02-26T01:03:00;5.65;;;5.15;;
40611;SDS011;26317;44.894;20.286;2023-02-26T01:05:38;5.75;;;4.93;;
40611;SDS011;26317;44.894;20.286;2023-02-26T01:08:28;5.70;;;5.20;;
40611;SDS011;26317;44.894;20.286;2023-02-26T01:11:26;4.28;;;3.88;;
40611;SDS011;26317;44.894;20.286;2023-02-26T01:14:10;6.25;;;5.70;;
40611;SDS011;26317;44.894;20.286;2023-02-26T01:16:52;6.95;;;6.35;;
40611;SDS011;26317;44.894;20.286;2023-02-26T01:19:30;5.40;;;4.93;;
40611;SDS011;26317;44.894;20.286;2023-02-26T01:22:16;6.35;;;5.75;;
40611;SDS011;26317;44.894;20.286;2023-02-26T01:25:08;8.68;;;7.78;;
40611;SDS011;26317;44.894;20.286;2023-02-26T01:30:40;7.43;;;6.75;;
40611;SDS011;26317;44.894;20.286;2023-02-26T01:33:24;7.50;;;6.80;;
40611;SDS011;26317;44.894;20.286;2023-02-26T01:36:09;7.30;;;6.60;;
40611;SDS011;26317;44.894;20.286;2023-02-26T01:38:56;8.88;;;8.07;;
40611;SDS011;26317;44.894;20.286;2023-02-26T01:41:42;8.60;;;7.70;;
40611;SDS011;26317;44.894;20.286;2023-02-26T01:44:29;7.22;;;6.53;;
40611;SDS011;26317;44.894;20.286;2023-02-26T01:47:19;6.97;;;6.28;;
40611;SDS011;26317;44.894;20.286;2023-02-26T01:50:19;6.95;;;6.30;;
40611;SDS011;26317;44.894;20.286;2023-02-26T01:53:20;5.43;;;4.97;;
40611;SDS011;26317;44.894;20.286;2023-02-26T01:56:00;5.32;;;4.82;;
40611;SDS011;26317;44.894;20.286;2023-02-26T01:58:50;6.60;;;6.00;;
40611;SDS011;26317;44.894;20.286;2023-02-26T02:01:41;6.65;;;6.05;;
40611;SDS011;26317;44.894;20.286;2023-02-26T02:04:35;6.25;;;5.63;;
40611;SDS011;26317;44.894;20.286;2023-02-26T02:07:12;5.20;;;4.78;;
40611;SDS011;26317;44.894;20.286;2023-02-26T02:10:00;4.68;;;4.28;;
40611;SDS011;26317;44.894;20.286;2023-02-26T02:12:37;4.03;;;3.72;;
40611;SDS011;26317;44.894;20.286;2023-02-26T02:15:43;3.97;;;3.67;;
40611;SDS011;26317;44.894;20.286;2023-02-26T02:18:26;4.60;;;4.18;;
40611;SDS011;26317;44.894;20.286;2023-02-26T02:24:41;5.00;;;4.60;;
40611;SDS011;26317;44.894;20.286;2023-02-26T02:27:40;5.15;;;4.75;;
40611;SDS011;26317;44.894;20.286;2023-02-26T02:30:35;6.30;;;5.70;;
40611;SDS011;26317;44.894;20.286;2023-02-26T02:33:33;7.32;;;6.07;;
40611;SDS011;26317;44.894;20.286;2023-02-26T02:36:20;5.78;;;5.28;;
40611;SDS011;26317;44.894;20.286;2023-02-26T02:39:03;5.00;;;4.50;;
40611;SDS011;26317;44.894;20.286;2023-02-26T02:41:41;5.47;;;5.00;;
40611;SDS011;26317;44.894;20.286;2023-02-26T02:44:26;5.50;;;5.10;;
40611;SDS011;26317;44.894;20.286;2023-02-26T02:47:13;5.90;;;5.40;;
40611;SDS011;26317;44.894;20.286;2023-02-26T02:50:05;5.70;;;5.20;;
40611;SDS011;26317;44.894;20.286;2023-02-26T02:53:06;4.43;;;4.03;;
40611;SDS011;26317;44.894;20.286;2023-02-26T02:55:49;3.85;;;3.55;;
40611;SDS011;26317;44.894;20.286;2023-02-26T02:58:33;3.83;;;3.53;;
40611;SDS011;26317;44.894;20.286;2023-02-26T03:01:18;4.07;;;3.72;;
40611;SDS011;26317;44.894;20.286;2023-02-26T03:04:04;3.72;;;3.42;;
40611;SDS011;26317;44.894;20.286;2023-02-26T03:07:02;3.80;;;3.50;;
40611;SDS011;26317;44.894;20.286;2023-02-26T03:09:40;3.70;;;3.40;;
40611;SDS011;26317;44.894;20.286;2023-02-26T03:12:29;4.03;;;3.42;;
40611;SDS011;26317;44.894;20.286;2023-02-26T03:15:07;2.85;;;2.65;;
40611;SDS011;26317;44.894;20.286;2023-02-26T03:18:04;2.35;;;2.25;;
40611;SDS011;26317;44.894;20.286;2023-02-26T03:20:52;2.38;;;2.17;;
40611;SDS011;26317;44.894;20.286;2023-02-26T03:26:53;3.33;;;2.30;;
40611;SDS011;26317;44.894;20.286;2023-02-26T03:29:34;1.80;;;1.70;;
40611;SDS011;26317;44.894;20.286;2023-02-26T03:32:20;1.92;;;1.83;;
40611;SDS011;26317;44.894;20.286;2023-02-26T03:35:00;1.90;;;1.80;;
40611;SDS011;26317;44.894;20.286;2023-02-26T03:37:46;2.50;;;2.30;;
40611;SDS011;26317;44.894;20.286;2023-02-26T03:40:33;2.70;;;2.45;;
40611;SDS011;26317;44.894;20.286;2023-02-26T03:43:14;2.42;;;2.22;;
40611;SDS011;26317;44.894;20.286;2023-02-26T03:46:09;2.88;;;2.67;;
40611;SDS011;26317;44.894;20.286;2023-02-26T03:48:54;3.08;;;2.78;;
40611;SDS011;26317;44.894;20.286;2023-02-26T03:51:43;3.63;;;3.33;;
40611;SDS011;26317;44.894;20.286;2023-02-26T03:54:53;3.38;;;3.08;;
40611;SDS011;26317;44.894;20.286;2023-02-26T03:58:19;3.75;;;3.45;;
40611;SDS011;26317;44.894;20.286;2023-02-26T04:01:25;3.78;;;3.45;;
40611;SDS011;26317;44.894;20.286;2023-02-26T04:04:22;3.75;;;3.45;;
40611;SDS011;26317;44.894;20.286;2023-02-26T04:07:04;4.40;;;4.00;;
40611;SDS011;26317;44.894;20.286;2023-02-26T04:09:40;3.60;;;3.30;;
40611;SDS011;26317;44.894;20.286;2023-02-26T04:12:26;2.90;;;2.70;;
40611;SDS011;26317;44.894;20.286;2023-02-26T04:15:10;3.20;;;2.90;;
40611;SDS011;26317;44.894;20.286;2023-02-26T04:17:50;3.10;;;2.90;;
40611;SDS011;26317;44.894;20.286;2023-02-26T04:20:31;3.40;;;3.10;;
40611;SDS011;26317;44.894;20.286;2023-02-26T04:23:29;3.47;;;3.17;;
40611;SDS011;26317;44.894;20.286;2023-02-26T04:26:12;2.83;;;2.63;;
40611;SDS011;26317;44.894;20.286;2023-02-26T04:28:46;3.33;;;2.63;;
40611;SDS011;26317;44.894;20.286;2023-02-26T04:31:36;3.08;;;2.88;;
40611;SDS011;26317;44.894;20.286;2023-02-26T04:34:12;3.10;;;2.90;;
40611;SDS011;26317;44.894;20.286;2023-02-26T04:36:47;3.83;;;3.53;;
40611;SDS011;26317;44.894;20.286;2023-02-26T04:39:23;4.70;;;4.25;;
40611;SDS011;26317;44.894;20.286;2023-02-26T04:42:22;3.90;;;3.60;;
40611;SDS011;26317;44.894;20.286;2023-02-26T04:45:08;5.03;;;4.20;;
40611;SDS011;26317;44.894;20.286;2023-02-26T04:47:44;3.33;;;3.03;;
40611;SDS011;26317;44.894;20.286;2023-02-26T04:50:31;3.38;;;2.90;;
40611;SDS011;26317;44.894;20.286;2023-02-26T04:53:09;2.92;;;2.72;;
40611;SDS011;26317;44.894;20.286;2023-02-26T04:55:56;3.05;;;2.83;;
40611;SDS011;26317;44.894;20.286;2023-02-26T04:58:31;2.92;;;2.70;;
40611;SDS011;26317;44.894;20.286;2023-02-26T05:01:11;3.83;;;3.50;;
40611;SDS011;26317;44.894;20.286;2023-02-26T05:04:08;6.35;;;5.18;;
40611;SDS011;26317;44.894;20.286;2023-02-26T05:06:50;11.10;;;8.13;;
40611;SDS011;26317;44.894;20.286;2023-02-26T05:09:22;7.53;;;5.78;;
40611;SDS011;26317;44.894;20.286;2023-02-26T05:12:05;4.32;;;4.00;;
40611;SDS011;26317;44.894;20.286;2023-02-26T05:14:43;3.63;;;3.33;;
40611;SDS011;26317;44.894;20.286;2023-02-26T05:17:24;2.97;;;2.78;;
40611;SDS011;26317;44.894;20.286;2023-02-26T05:19:59;2.92;;;2.72;;
40611;SDS011;26317;44.894;20.286;2023-02-26T05:22:42;3.70;;;3.40;;
40611;SDS011;26317;44.894;20.286;2023-02-26T05:25:25;3.25;;;2.85;;
40611;SDS011;26317;44.894;20.286;2023-02-26T05:28:11;3.35;;;3.05;;
40611;SDS011;26317;44.894;20.286;2023-02-26T05:30:50;3.50;;;3.20;;
40611;SDS011;26317;44.894;20.286;2023-02-26T05:33:25;3.72;;;3.42;;
40611;SDS011;26317;44.894;20.286;2023-02-26T05:36:01;3.65;;;3.35;;
40611;SDS011;26317;44.894;20.286;2023-02-26T05:38:41;3.22;;;3.03;;
40611;SDS011;26317;44.894;20.286;2023-02-26T05:41:24;4.00;;;3.70;;
40611;SDS011;26317;44.894;20.286;2023-02-26T05:44:01;3.85;;;2.72;;
40611;SDS011;26317;44.894;20.286;2023-02-26T05:46:40;4.95;;;4.45;;
40611;SDS011;26317;44.894;20.286;2023-02-26T05:49:17;5.18;;;4.78;;
40611;SDS011;26317;44.894;20.286;2023-02-26T05:52:13;4.90;;;4.50;;
40611;SDS011;26317;44.894;20.286;2023-02-26T05:54:50;27.40;;;24.45;;
40611;SDS011;26317;44.894;20.286;2023-02-26T05:57:24;9.45;;;8.55;;
40611;SDS011;26317;44.894;20.286;2023-02-26T05:59:57;6.85;;;6.25;;
40611;SDS011;26317;44.894;20.286;2023-02-26T06:02:43;8.18;;;7.35;;
40611;SDS011;26317;44.894;20.286;2023-02-26T06:05:23;7.90;;;6.90;;
40611;SDS011;26317;44.894;20.286;2023-02-26T06:08:17;7.10;;;6.45;;
40611;SDS011;26317;44.894;20.286;2023-02-26T06:10:53;6.97;;;6.30;;
40611;SDS011;26317;44.894;20.286;2023-02-26T06:13:35;7.82;;;7.05;;
40611;SDS011;26317;44.894;20.286;2023-02-26T06:16:10;7.13;;;6.43;;
40611;SDS011;26317;44.894;20.286;2023-02-26T06:18:46;7.90;;;5.88;;
40611;SDS011;26317;44.894;20.286;2023-02-26T06:21:23;5.32;;;4.93;;
40611;SDS011;26317;44.894;20.286;2023-02-26T06:24:17;4.57;;;3.97;;
40611;SDS011;26317;44.894;20.286;2023-02-26T06:26:55;4.82;;;4.43;;
40611;SDS011;26317;44.894;20.286;2023-02-26T06:29:40;5.07;;;4.57;;
40611;SDS011;26317;44.894;20.286;2023-02-26T06:32:20;4.20;;;3.88;;
40611;SDS011;26317;44.894;20.286;2023-02-26T06:34:58;5.30;;;4.80;;
40611;SDS011;26317;44.894;20.286;2023-02-26T06:37:36;6.15;;;5.55;;
40611;SDS011;26317;44.894;20.286;2023-02-26T06:40:21;5.50;;;5.00;;
40611;SDS011;26317;44.894;20.286;2023-02-26T06:43:08;4.95;;;4.55;;
40611;SDS011;26317;44.894;20.286;2023-02-26T06:45:44;6.75;;;6.15;;
40611;SDS011;26317;44.894;20.286;2023-02-26T06:48:17;7.30;;;6.57;;
40611;SDS011;26317;44.894;20.286;2023-02-26T06:50:55;6.90;;;6.30;;
40611;SDS011;26317;44.894;20.286;2023-02-26T06:53:28;8.00;;;7.28;;
40611;SDS011;26317;44.894;20.286;2023-02-26T06:56:12;9.73;;;8.73;;
40611;SDS011;26317;44.894;20.286;2023-02-26T06:58:53;6.80;;;6.20;;
40611;SDS011;26317;44.894;20.286;2023-02-26T07:01:29;8.48;;;7.68;;
40611;SDS011;26317;44.894;20.286;2023-02-26T07:04:08;7.88;;;7.18;;
40611;SDS011;26317;44.894;20.286;2023-02-26T07:06:47;7.75;;;7.05;;
40611;SDS011;26317;44.894;20.286;2023-02-26T07:09:31;9.88;;;8.90;;
40611;SDS011;26317;44.894;20.286;2023-02-26T07:12:11;12.25;;;10.38;;
40611;SDS011;26317;44.894;20.286;2023-02-26T07:14:47;19.70;;;12.68;;
40611;SDS011;26317;44.894;20.286;2023-02-26T07:17:21;18.00;;;12.63;;
40611;SDS011;26317;44.894;20.286;2023-02-26T07:19:55;15.55;;;12.02;;
40611;SDS011;26317;44.894;20.286;2023-02-26T07:22:42;16.92;;;14.50;;
40611;SDS011;26317;44.894;20.286;2023-02-26T07:25:20;17.13;;;15.23;;
40611;SDS011;26317;44.894;20.286;2023-02-26T07:28:14;15.10;;;13.48;;
40611;SDS011;26317;44.894;20.286;2023-02-26T07:30:49;15.48;;;13.88;;
40611;SDS011;26317;44.894;20.286;2023-02-26T07:33:31;17.55;;;13.98;;
40611;SDS011;26317;44.894;20.286;2023-02-26T07:36:09;11.32;;;10.23;;
40611;SDS011;26317;44.894;20.286;2023-02-26T07:38:46;10.70;;;9.70;;
40611;SDS011;26317;44.894;20.286;2023-02-26T07:41:19;11.07;;;9.98;;
40611;SDS011;26317;44.894;20.286;2023-02-26T07:44:11;13.20;;;12.02;;
40611;SDS011;26317;44.894;20.286;2023-02-26T07:46:49;13.15;;;11.75;;
40611;SDS011;26317;44.894;20.286;2023-02-26T07:49:22;12.40;;;11.20;;
40611;SDS011;26317;44.894;20.286;2023-02-26T07:52:08;10.52;;;9.63;;
40611;SDS011;26317;44.894;20.286;2023-02-26T07:54:45;12.52;;;11.35;;
40611;SDS011;26317;44.894;20.286;2023-02-26T07:57:16;13.98;;;12.57;;
40611;SDS011;26317;44.894;20.286;2023-02-26T07:59:52;19.70;;;17.60;;
40611;SDS011;26317;44.894;20.286;2023-02-26T08:02:22;20.02;;;17.00;;
40611;SDS011;26317;44.894;20.286;2023-02-26T08:05:05;20.10;;;17.45;;
40611;SDS011;26317;44.894;20.286;2023-02-26T08:07:37;23.67;;;19.20;;
40611;SDS011;26317;44.894;20.286;2023-02-26T08:10:18;26.08;;;19.63;;
40611;SDS011;26317;44.894;20.286;2023-02-26T08:12:53;18.65;;;16.48;;
40611;SDS011;26317;44.894;20.286;2023-02-26T08:15:34;15.27;;;13.75;;
40611;SDS011;26317;44.894;20.286;2023-02-26T08:18:10;13.77;;;12.18;;
40611;SDS011;26317;44.894;20.286;2023-02-26T08:20:52;14.68;;;12.57;;
40611;SDS011;26317;44.894;20.286;2023-02-26T08:23:32;15.38;;;13.73;;
40611;SDS011;26317;44.894;20.286;2023-02-26T08:26:08;18.83;;;14.75;;
40611;SDS011;26317;44.894;20.286;2023-02-26T08:28:44;15.63;;;14.13;;
40611;SDS011;26317;44.894;20.286;2023-02-26T08:31:22;13.57;;;12.25;;
40611;SDS011;26317;44.894;20.286;2023-02-26T08:34:08;16.13;;;14.52;;
40611;SDS011;26317;44.894;20.286;2023-02-26T08:36:49;29.50;;;22.20;;
40611;SDS011;26317;44.894;20.286;2023-02-26T08:39:55;90.63;;;52.15;;
40611;SDS011;26317;44.894;20.286;2023-02-26T08:42:27;135.15;;;69.82;;
40611;SDS011;26317;44.894;20.286;2023-02-26T08:45:18;29.80;;;22.52;;
40611;SDS011;26317;44.894;20.286;2023-02-26T08:48:13;29.88;;;22.00;;
40611;SDS011;26317;44.894;20.286;2023-02-26T08:50:47;127.35;;;61.08;;
40611;SDS011;26317;44.894;20.286;2023-02-26T08:53:31;57.67;;;34.63;;
40611;SDS011;26317;44.894;20.286;2023-02-26T08:56:17;64.60;;;42.10;;
40611;SDS011;26317;44.894;20.286;2023-02-26T08:59:00;41.30;;;29.98;;
40611;SDS011;26317;44.894;20.286;2023-02-26T09:01:51;39.42;;;27.95;;
40611;SDS011;26317;44.894;20.286;2023-02-26T09:04:48;58.38;;;44.10;;
40611;SDS011;26317;44.894;20.286;2023-02-26T09:07:28;26.98;;;21.45;;
40611;SDS011;26317;44.894;20.286;2023-02-26T09:12:50;15.88;;;14.27;;
40611;SDS011;26317;44.894;20.286;2023-02-26T09:15:32;18.13;;;16.23;;
40611;SDS011;26317;44.894;20.286;2023-02-26T09:18:10;17.92;;;16.10;;
40611;SDS011;26317;44.894;20.286;2023-02-26T09:21:01;14.18;;;12.57;;
40611;SDS011;26317;44.894;20.286;2023-02-26T09:23:42;16.92;;;15.23;;
40611;SDS011;26317;44.894;20.286;2023-02-26T09:26:21;13.43;;;12.13;;
40611;SDS011;26317;44.894;20.286;2023-02-26T09:29:27;17.23;;;13.57;;
40611;SDS011;26317;44.894;20.286;2023-02-26T09:32:08;46.92;;;24.15;;
40611;SDS011;26317;44.894;20.286;2023-02-26T09:34:42;51.72;;;26.90;;
40611;SDS011;26317;44.894;20.286;2023-02-26T09:37:35;40.47;;;25.00;;
40611;SDS011;26317;44.894;20.286;2023-02-26T09:40:17;25.45;;;18.92;;
40611;SDS011;26317;44.894;20.286;2023-02-26T09:46:35;26.40;;;23.63;;
40611;SDS011;26317;44.894;20.286;2023-02-26T09:49:19;41.80;;;31.55;;
40611;SDS011;26317;44.894;20.286;2023-02-26T09:52:09;26.27;;;22.58;;
40611;SDS011;26317;44.894;20.286;2023-02-26T09:55:05;21.88;;;18.85;;
40611;SDS011;26317;44.894;20.286;2023-02-26T09:57:53;21.05;;;18.80;;
40611;SDS011;26317;44.894;20.286;2023-02-26T10:00:37;22.23;;;19.85;;
40611;SDS011;26317;44.894;20.286;2023-02-26T10:03:26;27.42;;;23.60;;
40611;SDS011;26317;44.894;20.286;2023-02-26T10:06:20;18.48;;;16.48;;
40611;SDS011;26317;44.894;20.286;2023-02-26T10:09:11;17.85;;;15.95;;
40611;SDS011;26317;44.894;20.286;2023-02-26T10:12:12;16.15;;;13.52;;
40611;SDS011;26317;44.894;20.286;2023-02-26T10:14:49;23.77;;;20.92;;
40611;SDS011;26317;44.894;20.286;2023-02-26T10:17:41;19.08;;;17.10;;
40611;SDS011;26317;44.894;20.286;2023-02-26T10:20:28;16.90;;;15.30;;
40611;SDS011;26317;44.894;20.286;2023-02-26T10:23:17;17.48;;;15.57;;
40611;SDS011;26317;44.894;20.286;2023-02-26T10:26:01;184.23;;;142.43;;
40611;SDS011;26317;44.894;20.286;2023-02-26T10:28:53;20.45;;;18.38;;
40611;SDS011;26317;44.894;20.286;2023-02-26T10:31:34;21.10;;;18.92;;
40611;SDS011;26317;44.894;20.286;2023-02-26T10:34:17;18.92;;;17.08;;
40611;SDS011;26317;44.894;20.286;2023-02-26T10:37:12;19.92;;;17.85;;
40611;SDS011;26317;44.894;20.286;2023-02-26T10:39:58;17.33;;;15.55;;
40611;SDS011;26317;44.894;20.286;2023-02-26T10:42:43;19.65;;;16.80;;
40611;SDS011;26317;44.894;20.286;2023-02-26T10:48:37;21.05;;;18.85;;
40611;SDS011;26317;44.894;20.286;2023-02-26T10:51:20;23.80;;;20.85;;
40611;SDS011;26317;44.894;20.286;2023-02-26T10:54:12;27.02;;;23.77;;
40611;SDS011;26317;44.894;20.286;2023-02-26T10:56:58;26.23;;;22.27;;
40611;SDS011;26317;44.894;20.286;2023-02-26T10:59:33;34.70;;;28.00;;
40611;SDS011;26317;44.894;20.286;2023-02-26T11:02:25;21.65;;;19.45;;
40611;SDS011;26317;44.894;20.286;2023-02-26T11:05:14;25.65;;;22.60;;
40611;SDS011;26317;44.894;20.286;2023-02-26T11:08:00;26.00;;;20.45;;
40611;SDS011;26317;44.894;20.286;2023-02-26T11:10:44;22.60;;;19.23;;
40611;SDS011;26317;44.894;20.286;2023-02-26T11:13:23;21.50;;;19.30;;
40611;SDS011;26317;44.894;20.286;2023-02-26T11:16:05;28.27;;;23.92;;
40611;SDS011;26317;44.894;20.286;2023-02-26T11:19:01;29.83;;;25.48;;
40611;SDS011;26317;44.894;20.286;2023-02-26T11:21:47;28.15;;;24.27;;
40611;SDS011;26317;44.894;20.286;2023-02-26T11:24:27;26.27;;;22.52;;
40611;SDS011;26317;44.894;20.286;2023-02-26T11:27:08;26.35;;;22.35;;
40611;SDS011;26317;44.894;20.286;2023-02-26T11:29:53;25.33;;;22.70;;
40611;SDS011;26317;44.894;20.286;2023-02-26T11:32:32;22.90;;;20.42;;
40611;SDS011;26317;44.894;20.286;2023-02-26T11:35:20;30.17;;;26.13;;
40611;SDS011;26317;44.894;20.286;2023-02-26T11:37:56;24.53;;;20.83;;
40611;SDS011;26317;44.894;20.286;2023-02-26T11:40:37;22.33;;;20.13;;
40611;SDS011;26317;44.894;20.286;2023-02-26T11:43:35;21.90;;;19.70;;
40611;SDS011;26317;44.894;20.286;2023-02-26T11:46:13;22.25;;;20.15;;
40611;SDS011;26317;44.894;20.286;2023-02-26T11:49:10;23.08;;;20.23;;
40611;SDS011;26317;44.894;20.286;2023-02-26T11:51:59;21.83;;;19.73;;
40611;SDS011;26317;44.894;20.286;2023-02-26T11:55:15;22.38;;;19.98;;
40611;SDS011;26317;44.894;20.286;2023-02-26T11:58:04;23.05;;;20.08;;
40611;SDS011;26317;44.894;20.286;2023-02-26T12:00:53;21.52;;;18.48;;
40611;SDS011;26317;44.894;20.286;2023-02-26T12:03:41;23.38;;;18.60;;
40611;SDS011;26317;44.894;20.286;2023-02-26T12:06:23;20.90;;;18.35;;
40611;SDS011;26317;44.894;20.286;2023-02-26T12:09:10;18.38;;;16.48;;
40611;SDS011;26317;44.894;20.286;2023-02-26T12:12:02;19.98;;;17.88;;
40611;SDS011;26317;44.894;20.286;2023-02-26T12:15:28;23.70;;;20.67;;
40611;SDS011;26317;44.894;20.286;2023-02-26T12:18:34;22.35;;;19.92;;
40611;SDS011;26317;44.894;20.286;2023-02-26T12:37:50;23.48;;;21.08;;
40611;SDS011;26317;44.894;20.286;2023-02-26T12:40:48;22.92;;;20.55;;
40611;SDS011;26317;44.894;20.286;2023-02-26T12:43:30;24.20;;;21.65;;
40611;SDS011;26317;44.894;20.286;2023-02-26T12:46:27;24.92;;;22.17;;
40611;SDS011;26317;44.894;20.286;2023-02-26T12:49:40;27.10;;;24.20;;
40611;SDS011;26317;44.894;20.286;2023-02-26T12:52:59;29.35;;;25.33;;
40611;SDS011;26317;44.894;20.286;2023-02-26T12:55:57;24.23;;;21.73;;
40611;SDS011;26317;44.894;20.286;2023-02-26T12:59:06;26.02;;;23.23;;
40611;SDS011;26317;44.894;20.286;2023-02-26T13:02:06;22.48;;;20.02;;
40611;SDS011;26317;44.894;20.286;2023-02-26T13:05:11;24.80;;;21.75;;
40611;SDS011;26317;44.894;20.286;2023-02-26T13:08:16;38.78;;;31.35;;
40611;SDS011;26317;44.894;20.286;2023-02-26T13:11:02;26.08;;;23.23;;
40611;SDS011;26317;44.894;20.286;2023-02-26T13:13:52;27.00;;;23.43;;
40611;SDS011;26317;44.894;20.286;2023-02-26T13:16:38;24.20;;;19.13;;
40611;SDS011;26317;44.894;20.286;2023-02-26T13:19:22;18.40;;;16.27;;
40611;SDS011;26317;44.894;20.286;2023-02-26T13:22:13;20.92;;;17.85;;
40611;SDS011;26317;44.894;20.286;2023-02-26T13:25:11;22.02;;;19.45;;
40611;SDS011;26317;44.894;20.286;2023-02-26T13:27:54;23.77;;;21.17;;
40611;SDS011;26317;44.894;20.286;2023-02-26T13:30:35;27.52;;;23.83;;
40611;SDS011;26317;44.894;20.286;2023-02-26T13:33:14;24.30;;;21.77;;
40611;SDS011;26317;44.894;20.286;2023-02-26T13:35:54;21.30;;;18.77;;
40611;SDS011;26317;44.894;20.286;2023-02-26T13:38:29;22.83;;;19.85;;
40611;SDS011;26317;44.894;20.286;2023-02-26T13:41:09;20.58;;;18.38;;
40611;SDS011;26317;44.894;20.286;2023-02-26T13:43:56;20.27;;;18.13;;
40611;SDS011;26317;44.894;20.286;2023-02-26T13:46:45;24.88;;;18.92;;
40611;SDS011;26317;44.894;20.286;2023-02-26T13:49:34;20.17;;;18.17;;
40611;SDS011;26317;44.894;20.286;2023-02-26T13:52:24;21.35;;;19.05;;
40611;SDS011;26317;44.894;20.286;2023-02-26T13:55:04;21.58;;;19.40;;
40611;SDS011;26317;44.894;20.286;2023-02-26T13:58:07;25.17;;;22.48;;
40611;SDS011;26317;44.894;20.286;2023-02-26T14:01:05;26.38;;;23.60;;
40611;SDS011;26317;44.894;20.286;2023-02-26T14:03:49;22.27;;;19.92;;
40611;SDS011;26317;44.894;20.286;2023-02-26T14:06:35;28.70;;;24.73;;
40611;SDS011;26317;44.894;20.286;2023-02-26T14:12:22;26.25;;;23.40;;
40611;SDS011;26317;44.894;20.286;2023-02-26T14:18:29;26.48;;;23.75;;
40611;SDS011;26317;44.894;20.286;2023-02-26T14:24:13;26.92;;;23.60;;
40611;SDS011;26317;44.894;20.286;2023-02-26T14:27:05;24.95;;;22.52;;
40611;SDS011;26317;44.894;20.286;2023-02-26T14:29:43;26.75;;;23.85;;
40611;SDS011;26317;44.894;20.286;2023-02-26T14:32:52;27.67;;;24.77;;
40611;SDS011;26317;44.894;20.286;2023-02-26T14:35:33;31.02;;;27.63;;
40611;SDS011;26317;44.894;20.286;2023-02-26T14:38:15;29.77;;;26.02;;
40611;SDS011;26317;44.894;20.286;2023-02-26T14:40:59;25.13;;;22.63;;
40611;SDS011;26317;44.894;20.286;2023-02-26T14:43:53;24.17;;;21.88;;
40611;SDS011;26317;44.894;20.286;2023-02-26T14:46:36;29.08;;;26.10;;
40611;SDS011;26317;44.894;20.286;2023-02-26T14:49:26;32.28;;;28.88;;
40611;SDS011;26317;44.894;20.286;2023-02-26T14:58:43;27.67;;;24.88;;
40611;SDS011;26317;44.894;20.286;2023-02-26T15:01:48;31.08;;;27.77;;
40611;SDS011;26317;44.894;20.286;2023-02-26T15:04:39;46.25;;;35.35;;
40611;SDS011;26317;44.894;20.286;2023-02-26T15:07:51;50.15;;;38.55;;
40611;SDS011;26317;44.894;20.286;2023-02-26T15:10:53;36.43;;;32.20;;
40611;SDS011;26317;44.894;20.286;2023-02-26T15:13:45;32.17;;;28.90;;
40611;SDS011;26317;44.894;20.286;2023-02-26T15:16:36;31.88;;;28.55;;
40611;SDS011;26317;44.894;20.286;2023-02-26T15:19:28;29.67;;;26.88;;
40611;SDS011;26317;44.894;20.286;2023-02-26T15:22:18;33.10;;;29.80;;
40611;SDS011;26317;44.894;20.286;2023-02-26T15:25:07;31.45;;;28.20;;
40611;SDS011;26317;44.894;20.286;2023-02-26T15:28:01;34.88;;;31.30;;
40611;SDS011;26317;44.894;20.286;2023-02-26T15:30:41;33.83;;;30.40;;
40611;SDS011;26317;44.894;20.286;2023-02-26T15:33:33;33.35;;;30.05;;
40611;SDS011;26317;44.894;20.286;2023-02-26T15:36:15;34.00;;;30.60;;
40611;SDS011;26317;44.894;20.286;2023-02-26T15:38:59;35.70;;;32.03;;
40611;SDS011;26317;44.894;20.286;2023-02-26T15:41:43;36.00;;;32.47;;
40611;SDS011;26317;44.894;20.286;2023-02-26T15:44:23;35.20;;;31.77;;
40611;SDS011;26317;44.894;20.286;2023-02-26T15:47:01;34.92;;;31.13;;
40611;SDS011;26317;44.894;20.286;2023-02-26T15:49:40;37.05;;;33.35;;
40611;SDS011;26317;44.894;20.286;2023-02-26T15:52:38;36.78;;;33.00;;
40611;SDS011;26317;44.894;20.286;2023-02-26T15:55:20;34.47;;;30.88;;
40611;SDS011;26317;44.894;20.286;2023-02-26T15:57:51;35.25;;;31.75;;
40611;SDS011;26317;44.894;20.286;2023-02-26T16:00:27;35.95;;;32.40;;
40611;SDS011;26317;44.894;20.286;2023-02-26T16:03:13;36.75;;;32.92;;
40611;SDS011;26317;44.894;20.286;2023-02-26T16:05:47;39.65;;;35.55;;
40611;SDS011;26317;44.894;20.286;2023-02-26T16:08:39;38.25;;;34.28;;
40611;SDS011;26317;44.894;20.286;2023-02-26T16:11:19;41.25;;;37.17;;
40611;SDS011;26317;44.894;20.286;2023-02-26T16:13:59;50.40;;;43.97;;
40611;SDS011;26317;44.894;20.286;2023-02-26T16:16:36;46.28;;;41.25;;
40611;SDS011;26317;44.894;20.286;2023-02-26T16:19:19;41.42;;;37.05;;
40611;SDS011;26317;44.894;20.286;2023-02-26T16:22:15;38.50;;;34.55;;
40611;SDS011;26317;44.894;20.286;2023-02-26T16:25:01;36.47;;;32.90;;
40611;SDS011;26317;44.894;20.286;2023-02-26T16:28:04;40.83;;;35.83;;
40611;SDS011;26317;44.894;20.286;2023-02-26T16:30:44;40.03;;;35.60;;
40611;SDS011;26317;44.894;20.286;2023-02-26T16:33:41;39.53;;;35.25;;
40611;SDS011;26317;44.894;20.286;2023-02-26T16:36:25;40.15;;;35.95;;
40611;SDS011;26317;44.894;20.286;2023-02-26T16:39:13;36.25;;;32.47;;
40611;SDS011;26317;44.894;20.286;2023-02-26T16:42:07;37.47;;;33.55;;
40611;SDS011;26317;44.894;20.286;2023-02-26T16:44:47;39.10;;;35.25;;
40611;SDS011;26317;44.894;20.286;2023-02-26T16:47:48;42.38;;;37.85;;
40611;SDS011;26317;44.894;20.286;2023-02-26T16:50:33;41.10;;;36.85;;
40611;SDS011;26317;44.894;20.286;2023-02-26T16:53:12;41.05;;;36.80;;
40611;SDS011;26317;44.894;20.286;2023-02-26T16:55:57;42.88;;;38.28;;
40611;SDS011;26317;44.894;20.286;2023-02-26T16:58:42;41.53;;;37.05;;
40611;SDS011;26317;44.894;20.286;2023-02-26T17:01:25;41.85;;;37.42;;
40611;SDS011;26317;44.894;20.286;2023-02-26T17:04:06;49.40;;;41.72;;